sensor_id;sensor_type;location;lat;lon;timestamp;temperature;humidity
37642;DHT22;23486;51.956;5.888;2023-08-08T00:00:10;14.60;99.90
37642;DHT22;23486;51.956;5.888;2023-08-08T00:02:36;14.60;99.90
37642;DHT22;23486;51.956;5.888;2023-08-08T00:05:02;14.50;99.90
37642;DHT22;23486;51.956;5.888;2023-08-08T00:07:28;14.50;99.90
37642;DHT22;23486;51.956;5.888;2023-08-08T00:09:56;14.50;99.90
37642;DHT22;23486;51.956;5.888;2023-08-08T00:12:23;14.40;99.90
37642;DHT22;23486;51.956;5.888;2023-08-08T00:14:48;14.40;99.90
37642;DHT22;23486;51.956;5.888;2023-08-08T00:17:14;14.40;99.90
37642;DHT22;23486;51.956;5.888;2023-08-08T00:19:40;14.50;99.90
37642;DHT22;23486;51.956;5.888;2023-08-08T00:22:05;14.50;99.90
37642;DHT22;23486;51.956;5.888;2023-08-08T00:24:31;14.50;99.90
37642;DHT22;23486;51.956;5.888;2023-08-08T00:26:57;14.60;99.90
37642;DHT22;23486;51.956;5.888;2023-08-08T00:29:23;14.60;99.90
37642;DHT22;23486;51.956;5.888;2023-08-08T00:31:48;14.60;99.90
37642;DHT22;23486;51.956;5.888;2023-08-08T00:34:14;14.60;99.90
37642;DHT22;23486;51.956;5.888;2023-08-08T00:36:40;14.60;99.90
37642;DHT22;23486;51.956;5.888;2023-08-08T00:39:05;14.70;99.90
37642;DHT22;23486;51.956;5.888;2023-08-08T00:41:31;14.70;99.90
37642;DHT22;23486;51.956;5.888;2023-08-08T00:43:56;14.70;99.90
37642;DHT22;23486;51.956;5.888;2023-08-08T00:46:22;14.70;99.90
37642;DHT22;23486;51.956;5.888;2023-08-08T00:48:53;14.70;99.90
37642;DHT22;23486;51.956;5.888;2023-08-08T00:51:20;14.70;99.90
37642;DHT22;23486;51.956;5.888;2023-08-08T00:53:46;14.70;99.90
37642;DHT22;23486;51.956;5.888;2023-08-08T00:56:13;14.70;99.90
37642;DHT22;23486;51.956;5.888;2023-08-08T00:58:40;14.70;99.90
37642;DHT22;23486;51.956;5.888;2023-08-08T01:01:06;14.70;99.90
37642;DHT22;23486;51.956;5.888;2023-08-08T01:03:32;14.70;99.90
37642;DHT22;23486;51.956;5.888;2023-08-08T01:06:45;14.70;99.90
37642;DHT22;23486;51.956;5.888;2023-08-08T01:08:57;14.70;99.90
37642;DHT22;23486;51.956;5.888;2023-08-08T01:11:24;14.80;99.90
37642;DHT22;23486;51.956;5.888;2023-08-08T01:13:52;14.80;99.90
37642;DHT22;23486;51.956;5.888;2023-08-08T01:16:20;14.80;99.90
37642;DHT22;23486;51.956;5.888;2023-08-08T01:18:47;14.80;99.90
37642;DHT22;23486;51.956;5.888;2023-08-08T01:21:15;14.80;99.90
37642;DHT22;23486;51.956;5.888;2023-08-08T01:23:42;14.80;99.90
37642;DHT22;23486;51.956;5.888;2023-08-08T01:26:09;14.70;99.90
37642;DHT22;23486;51.956;5.888;2023-08-08T01:28:35;14.70;99.90
37642;DHT22;23486;51.956;5.888;2023-08-08T01:31:01;14.70;99.90
37642;DHT22;23486;51.956;5.888;2023-08-08T01:33:27;14.70;99.90
37642;DHT22;23486;51.956;5.888;2023-08-08T01:36:19;14.60;99.90
37642;DHT22;23486;51.956;5.888;2023-08-08T01:38:47;14.60;99.90
37642;DHT22;23486;51.956;5.888;2023-08-08T01:41:14;14.70;99.90
37642;DHT22;23486;51.956;5.888;2023-08-08T01:43:41;14.70;99.90
37642;DHT22;23486;51.956;5.888;2023-08-08T01:46:07;14.60;99.90
37642;DHT22;23486;51.956;5.888;2023-08-08T01:48:33;14.60;99.90
37642;DHT22;23486;51.956;5.888;2023-08-08T01:50:59;14.60;99.90
37642;DHT22;23486;51.956;5.888;2023-08-08T01:53:24;14.50;99.90
37642;DHT22;23486;51.956;5.888;2023-08-08T01:55:50;14.50;99.90
37642;DHT22;23486;51.956;5.888;2023-08-08T01:58:17;14.40;99.90
37642;DHT22;23486;51.956;5.888;2023-08-08T02:00:43;14.40;99.90
37642;DHT22;23486;51.956;5.888;2023-08-08T02:03:10;14.40;99.90
37642;DHT22;23486;51.956;5.888;2023-08-08T02:05:36;14.40;99.90
37642;DHT22;23486;51.956;5.888;2023-08-08T02:08:02;14.40;99.90
37642;DHT22;23486;51.956;5.888;2023-08-08T02:10:27;14.40;99.90
37642;DHT22;23486;51.956;5.888;2023-08-08T02:12:53;14.40;99.90
37642;DHT22;23486;51.956;5.888;2023-08-08T02:15:19;14.40;99.90
37642;DHT22;23486;51.956;5.888;2023-08-08T02:17:45;14.40;99.90
37642;DHT22;23486;51.956;5.888;2023-08-08T02:20:11;14.40;99.90
37642;DHT22;23486;51.956;5.888;2023-08-08T02:22:37;14.40;99.90
37642;DHT22;23486;51.956;5.888;2023-08-08T02:25:03;14.40;99.90
37642;DHT22;23486;51.956;5.888;2023-08-08T02:27:29;14.40;99.90
37642;DHT22;23486;51.956;5.888;2023-08-08T02:29:54;14.40;99.90
37642;DHT22;23486;51.956;5.888;2023-08-08T02:32:20;14.40;99.90
37642;DHT22;23486;51.956;5.888;2023-08-08T02:34:46;14.40;99.90
37642;DHT22;23486;51.956;5.888;2023-08-08T02:37:11;14.30;99.90
37642;DHT22;23486;51.956;5.888;2023-08-08T02:39:38;14.20;99.90
37642;DHT22;23486;51.956;5.888;2023-08-08T02:42:04;14.20;99.90
37642;DHT22;23486;51.956;5.888;2023-08-08T02:44:29;14.20;99.90
37642;DHT22;23486;51.956;5.888;2023-08-08T02:46:55;14.10;99.90
37642;DHT22;23486;51.956;5.888;2023-08-08T02:49:21;14.10;99.90
37642;DHT22;23486;51.956;5.888;2023-08-08T02:51:46;14.00;99.90
37642;DHT22;23486;51.956;5.888;2023-08-08T02:54:12;14.00;99.90
37642;DHT22;23486;51.956;5.888;2023-08-08T02:56:37;14.00;99.90
37642;DHT22;23486;51.956;5.888;2023-08-08T02:59:03;13.90;99.90
37642;DHT22;23486;51.956;5.888;2023-08-08T03:01:29;13.90;99.90
37642;DHT22;23486;51.956;5.888;2023-08-08T03:03:54;13.90;99.90
37642;DHT22;23486;51.956;5.888;2023-08-08T03:06:20;13.90;99.90
37642;DHT22;23486;51.956;5.888;2023-08-08T03:08:45;13.90;99.90
37642;DHT22;23486;51.956;5.888;2023-08-08T03:11:11;13.90;99.90
37642;DHT22;23486;51.956;5.888;2023-08-08T03:13:37;13.90;99.90
37642;DHT22;23486;51.956;5.888;2023-08-08T03:16:03;13.90;99.90
37642;DHT22;23486;51.956;5.888;2023-08-08T03:18:29;13.90;99.90
37642;DHT22;23486;51.956;5.888;2023-08-08T03:20:54;13.90;99.90
37642;DHT22;23486;51.956;5.888;2023-08-08T03:23:20;13.90;99.90
37642;DHT22;23486;51.956;5.888;2023-08-08T03:25:45;13.90;99.90
37642;DHT22;23486;51.956;5.888;2023-08-08T03:28:11;13.90;99.90
37642;DHT22;23486;51.956;5.888;2023-08-08T03:30:37;14.00;99.90
37642;DHT22;23486;51.956;5.888;2023-08-08T03:33:04;14.00;99.90
37642;DHT22;23486;51.956;5.888;2023-08-08T03:35:30;13.90;99.90
37642;DHT22;23486;51.956;5.888;2023-08-08T03:37:55;14.00;99.90
37642;DHT22;23486;51.956;5.888;2023-08-08T03:40:21;13.90;99.90
37642;DHT22;23486;51.956;5.888;2023-08-08T03:42:46;13.90;99.90
37642;DHT22;23486;51.956;5.888;2023-08-08T03:45:12;13.90;99.90
37642;DHT22;23486;51.956;5.888;2023-08-08T03:47:39;14.00;99.90
37642;DHT22;23486;51.956;5.888;2023-08-08T03:50:06;14.00;99.90
37642;DHT22;23486;51.956;5.888;2023-08-08T03:52:32;14.00;99.90
37642;DHT22;23486;51.956;5.888;2023-08-08T03:55:01;14.00;99.90
37642;DHT22;23486;51.956;5.888;2023-08-08T03:57:26;13.90;99.90
37642;DHT22;23486;51.956;5.888;2023-08-08T03:59:52;13.90;99.90
37642;DHT22;23486;51.956;5.888;2023-08-08T04:02:17;13.90;99.90
37642;DHT22;23486;51.956;5.888;2023-08-08T04:04:43;14.00;99.90
37642;DHT22;23486;51.956;5.888;2023-08-08T04:07:09;13.90;99.90
37642;DHT22;23486;51.956;5.888;2023-08-08T04:09:34;13.90;99.90
37642;DHT22;23486;51.956;5.888;2023-08-08T04:12:00;13.90;99.90
37642;DHT22;23486;51.956;5.888;2023-08-08T04:14:25;13.90;99.90
37642;DHT22;23486;51.956;5.888;2023-08-08T04:16:51;14.00;99.90
37642;DHT22;23486;51.956;5.888;2023-08-08T04:19:16;14.00;99.90
37642;DHT22;23486;51.956;5.888;2023-08-08T04:21:42;14.00;99.90
37642;DHT22;23486;51.956;5.888;2023-08-08T04:24:08;14.00;99.90
37642;DHT22;23486;51.956;5.888;2023-08-08T04:26:34;14.00;99.90
37642;DHT22;23486;51.956;5.888;2023-08-08T04:28:59;14.10;99.90
37642;DHT22;23486;51.956;5.888;2023-08-08T04:31:25;14.00;99.90
37642;DHT22;23486;51.956;5.888;2023-08-08T04:33:52;14.00;99.90
37642;DHT22;23486;51.956;5.888;2023-08-08T04:36:21;14.00;99.90
37642;DHT22;23486;51.956;5.888;2023-08-08T04:38:46;14.00;99.90
37642;DHT22;23486;51.956;5.888;2023-08-08T04:41:12;14.00;99.90
37642;DHT22;23486;51.956;5.888;2023-08-08T04:43:38;14.00;99.90
37642;DHT22;23486;51.956;5.888;2023-08-08T04:46:03;14.00;99.90
37642;DHT22;23486;51.956;5.888;2023-08-08T04:48:29;14.00;99.90
37642;DHT22;23486;51.956;5.888;2023-08-08T04:50:54;14.00;99.90
37642;DHT22;23486;51.956;5.888;2023-08-08T04:53:20;14.00;99.90
37642;DHT22;23486;51.956;5.888;2023-08-08T04:55:45;14.00;99.90
37642;DHT22;23486;51.956;5.888;2023-08-08T04:58:11;14.10;99.90
37642;DHT22;23486;51.956;5.888;2023-08-08T05:00:37;14.10;99.90
37642;DHT22;23486;51.956;5.888;2023-08-08T05:03:02;14.10;99.90
37642;DHT22;23486;51.956;5.888;2023-08-08T05:05:28;14.10;99.90
37642;DHT22;23486;51.956;5.888;2023-08-08T05:07:53;14.00;99.90
37642;DHT22;23486;51.956;5.888;2023-08-08T05:10:19;14.00;99.90
37642;DHT22;23486;51.956;5.888;2023-08-08T05:12:44;13.90;99.90
37642;DHT22;23486;51.956;5.888;2023-08-08T05:15:11;13.90;99.90
37642;DHT22;23486;51.956;5.888;2023-08-08T05:17:37;14.00;99.90
37642;DHT22;23486;51.956;5.888;2023-08-08T05:20:03;14.00;99.90
37642;DHT22;23486;51.956;5.888;2023-08-08T05:22:29;14.00;99.90
37642;DHT22;23486;51.956;5.888;2023-08-08T05:24:55;14.00;99.90
37642;DHT22;23486;51.956;5.888;2023-08-08T05:27:23;14.10;99.90
37642;DHT22;23486;51.956;5.888;2023-08-08T05:29:49;14.20;99.90
37642;DHT22;23486;51.956;5.888;2023-08-08T05:32:14;14.20;99.90
37642;DHT22;23486;51.956;5.888;2023-08-08T05:34:40;14.40;99.90
37642;DHT22;23486;51.956;5.888;2023-08-08T05:37:05;14.40;99.90
37642;DHT22;23486;51.956;5.888;2023-08-08T05:39:31;14.50;99.90
37642;DHT22;23486;51.956;5.888;2023-08-08T05:41:57;14.50;99.90
37642;DHT22;23486;51.956;5.888;2023-08-08T05:44:22;14.50;99.90
37642;DHT22;23486;51.956;5.888;2023-08-08T05:46:48;14.60;99.90
37642;DHT22;23486;51.956;5.888;2023-08-08T05:49:13;14.60;99.90
37642;DHT22;23486;51.956;5.888;2023-08-08T05:51:40;14.70;99.90
37642;DHT22;23486;51.956;5.888;2023-08-08T05:54:06;14.70;99.90
37642;DHT22;23486;51.956;5.888;2023-08-08T05:56:35;14.80;99.90
37642;DHT22;23486;51.956;5.888;2023-08-08T05:59:02;14.90;99.90
37642;DHT22;23486;51.956;5.888;2023-08-08T06:01:27;14.90;99.90
37642;DHT22;23486;51.956;5.888;2023-08-08T06:03:53;15.00;99.90
37642;DHT22;23486;51.956;5.888;2023-08-08T06:06:19;15.10;99.90
37642;DHT22;23486;51.956;5.888;2023-08-08T06:08:44;15.10;99.90
37642;DHT22;23486;51.956;5.888;2023-08-08T06:11:11;15.20;99.90
37642;DHT22;23486;51.956;5.888;2023-08-08T06:13:37;15.20;99.90
37642;DHT22;23486;51.956;5.888;2023-08-08T06:16:03;15.20;99.90
37642;DHT22;23486;51.956;5.888;2023-08-08T06:18:32;15.20;99.90
37642;DHT22;23486;51.956;5.888;2023-08-08T06:20:58;15.30;99.90
37642;DHT22;23486;51.956;5.888;2023-08-08T06:23:24;15.30;99.90
37642;DHT22;23486;51.956;5.888;2023-08-08T06:25:49;15.30;99.90
37642;DHT22;23486;51.956;5.888;2023-08-08T06:28:15;15.40;99.90
37642;DHT22;23486;51.956;5.888;2023-08-08T06:30:41;15.50;99.90
37642;DHT22;23486;51.956;5.888;2023-08-08T06:33:07;15.60;99.90
37642;DHT22;23486;51.956;5.888;2023-08-08T06:35:33;15.60;99.90
37642;DHT22;23486;51.956;5.888;2023-08-08T06:37:58;15.70;99.90
37642;DHT22;23486;51.956;5.888;2023-08-08T06:40:24;15.70;99.90
37642;DHT22;23486;51.956;5.888;2023-08-08T06:42:50;15.70;99.90
37642;DHT22;23486;51.956;5.888;2023-08-08T06:45:15;15.70;99.90
37642;DHT22;23486;51.956;5.888;2023-08-08T06:47:41;15.70;99.90
37642;DHT22;23486;51.956;5.888;2023-08-08T06:50:07;15.70;99.90
37642;DHT22;23486;51.956;5.888;2023-08-08T06:52:33;15.80;99.90
37642;DHT22;23486;51.956;5.888;2023-08-08T06:54:59;15.80;99.90
37642;DHT22;23486;51.956;5.888;2023-08-08T06:57:25;15.90;99.90
37642;DHT22;23486;51.956;5.888;2023-08-08T06:59:50;16.10;99.90
37642;DHT22;23486;51.956;5.888;2023-08-08T07:02:19;16.20;99.90
37642;DHT22;23486;51.956;5.888;2023-08-08T07:04:46;16.20;99.90
37642;DHT22;23486;51.956;5.888;2023-08-08T07:07:11;16.20;99.90
37642;DHT22;23486;51.956;5.888;2023-08-08T07:09:37;16.20;99.90
37642;DHT22;23486;51.956;5.888;2023-08-08T07:12:03;16.30;99.90
37642;DHT22;23486;51.956;5.888;2023-08-08T07:14:31;16.30;99.90
37642;DHT22;23486;51.956;5.888;2023-08-08T07:16:58;16.40;99.90
37642;DHT22;23486;51.956;5.888;2023-08-08T07:19:24;16.40;99.90
37642;DHT22;23486;51.956;5.888;2023-08-08T07:21:49;16.30;99.90
37642;DHT22;23486;51.956;5.888;2023-08-08T07:24:16;16.30;99.90
37642;DHT22;23486;51.956;5.888;2023-08-08T07:26:41;16.30;99.90
37642;DHT22;23486;51.956;5.888;2023-08-08T07:29:07;16.30;99.90
37642;DHT22;23486;51.956;5.888;2023-08-08T07:31:33;16.30;99.90
37642;DHT22;23486;51.956;5.888;2023-08-08T07:33:58;16.30;99.90
37642;DHT22;23486;51.956;5.888;2023-08-08T07:36:24;16.30;99.90
37642;DHT22;23486;51.956;5.888;2023-08-08T07:38:50;16.30;99.90
37642;DHT22;23486;51.956;5.888;2023-08-08T07:41:16;16.40;99.90
37642;DHT22;23486;51.956;5.888;2023-08-08T07:43:43;16.50;99.90
37642;DHT22;23486;51.956;5.888;2023-08-08T07:46:09;16.60;99.90
37642;DHT22;23486;51.956;5.888;2023-08-08T07:48:35;16.70;99.90
37642;DHT22;23486;51.956;5.888;2023-08-08T07:51:00;16.80;99.90
37642;DHT22;23486;51.956;5.888;2023-08-08T07:53:26;16.90;99.90
37642;DHT22;23486;51.956;5.888;2023-08-08T07:55:51;16.90;99.90
37642;DHT22;23486;51.956;5.888;2023-08-08T07:58:18;16.90;99.90
37642;DHT22;23486;51.956;5.888;2023-08-08T08:00:44;16.90;99.90
37642;DHT22;23486;51.956;5.888;2023-08-08T08:03:10;17.00;99.90
37642;DHT22;23486;51.956;5.888;2023-08-08T08:05:35;17.10;99.90
37642;DHT22;23486;51.956;5.888;2023-08-08T08:08:03;17.20;99.90
37642;DHT22;23486;51.956;5.888;2023-08-08T08:10:28;17.30;99.90
37642;DHT22;23486;51.956;5.888;2023-08-08T08:12:56;17.30;99.90
37642;DHT22;23486;51.956;5.888;2023-08-08T08:15:24;17.30;99.90
37642;DHT22;23486;51.956;5.888;2023-08-08T08:17:50;17.30;99.90
37642;DHT22;23486;51.956;5.888;2023-08-08T08:20:16;17.30;99.90
37642;DHT22;23486;51.956;5.888;2023-08-08T08:22:41;17.40;99.90
37642;DHT22;23486;51.956;5.888;2023-08-08T08:25:07;17.50;99.90
37642;DHT22;23486;51.956;5.888;2023-08-08T08:27:35;17.50;99.90
37642;DHT22;23486;51.956;5.888;2023-08-08T08:30:06;17.40;99.90
37642;DHT22;23486;51.956;5.888;2023-08-08T08:32:38;17.40;99.90
37642;DHT22;23486;51.956;5.888;2023-08-08T08:35:04;17.50;99.90
37642;DHT22;23486;51.956;5.888;2023-08-08T08:37:31;17.50;99.90
37642;DHT22;23486;51.956;5.888;2023-08-08T08:39:57;17.60;99.90
37642;DHT22;23486;51.956;5.888;2023-08-08T08:42:23;17.70;99.90
37642;DHT22;23486;51.956;5.888;2023-08-08T08:44:49;17.70;99.90
37642;DHT22;23486;51.956;5.888;2023-08-08T08:47:17;17.80;99.90
37642;DHT22;23486;51.956;5.888;2023-08-08T08:49:45;17.80;99.90
37642;DHT22;23486;51.956;5.888;2023-08-08T08:52:11;17.80;99.90
37642;DHT22;23486;51.956;5.888;2023-08-08T08:54:37;17.90;99.90
37642;DHT22;23486;51.956;5.888;2023-08-08T08:57:04;18.00;99.90
37642;DHT22;23486;51.956;5.888;2023-08-08T08:59:29;18.10;99.90
37642;DHT22;23486;51.956;5.888;2023-08-08T09:01:56;18.20;99.90
37642;DHT22;23486;51.956;5.888;2023-08-08T09:04:22;18.20;99.90
37642;DHT22;23486;51.956;5.888;2023-08-08T09:06:49;18.30;99.90
37642;DHT22;23486;51.956;5.888;2023-08-08T09:09:15;18.40;99.90
37642;DHT22;23486;51.956;5.888;2023-08-08T09:11:51;18.40;99.90
37642;DHT22;23486;51.956;5.888;2023-08-08T09:14:25;18.40;99.90
37642;DHT22;23486;51.956;5.888;2023-08-08T09:16:52;18.30;99.90
37642;DHT22;23486;51.956;5.888;2023-08-08T09:19:22;18.30;99.90
37642;DHT22;23486;51.956;5.888;2023-08-08T09:21:49;18.30;99.90
37642;DHT22;23486;51.956;5.888;2023-08-08T09:24:15;18.40;99.90
37642;DHT22;23486;51.956;5.888;2023-08-08T09:26:42;18.50;99.90
37642;DHT22;23486;51.956;5.888;2023-08-08T09:29:08;18.60;99.90
37642;DHT22;23486;51.956;5.888;2023-08-08T09:31:34;18.80;99.90
37642;DHT22;23486;51.956;5.888;2023-08-08T09:34:02;18.90;99.90
37642;DHT22;23486;51.956;5.888;2023-08-08T09:36:28;18.90;99.90
37642;DHT22;23486;51.956;5.888;2023-08-08T09:38:55;19.00;99.90
37642;DHT22;23486;51.956;5.888;2023-08-08T09:41:22;19.00;99.90
37642;DHT22;23486;51.956;5.888;2023-08-08T09:43:48;19.10;99.90
37642;DHT22;23486;51.956;5.888;2023-08-08T09:46:14;19.10;99.90
37642;DHT22;23486;51.956;5.888;2023-08-08T09:48:41;19.10;99.90
37642;DHT22;23486;51.956;5.888;2023-08-08T09:51:08;19.20;99.90
37642;DHT22;23486;51.956;5.888;2023-08-08T09:53:34;19.20;99.90
37642;DHT22;23486;51.956;5.888;2023-08-08T09:56:04;19.20;99.90
37642;DHT22;23486;51.956;5.888;2023-08-08T09:58:31;19.20;99.90
37642;DHT22;23486;51.956;5.888;2023-08-08T10:00:57;19.20;99.90
37642;DHT22;23486;51.956;5.888;2023-08-08T10:03:23;19.20;99.90
37642;DHT22;23486;51.956;5.888;2023-08-08T10:05:49;19.30;99.90
37642;DHT22;23486;51.956;5.888;2023-08-08T10:08:15;19.40;99.90
37642;DHT22;23486;51.956;5.888;2023-08-08T10:10:44;19.50;99.90
37642;DHT22;23486;51.956;5.888;2023-08-08T10:13:10;19.60;99.90
37642;DHT22;23486;51.956;5.888;2023-08-08T10:15:39;19.70;99.90
37642;DHT22;23486;51.956;5.888;2023-08-08T10:18:06;19.90;99.90
37642;DHT22;23486;51.956;5.888;2023-08-08T10:20:32;19.80;99.40
37642;DHT22;23486;51.956;5.888;2023-08-08T10:23:01;19.80;99.90
37642;DHT22;23486;51.956;5.888;2023-08-08T10:25:30;19.80;99.00
37642;DHT22;23486;51.956;5.888;2023-08-08T10:28:08;19.70;99.20
37642;DHT22;23486;51.956;5.888;2023-08-08T10:30:43;19.70;99.00
37642;DHT22;23486;51.956;5.888;2023-08-08T10:33:19;19.80;99.10
37642;DHT22;23486;51.956;5.888;2023-08-08T10:36:05;19.90;98.60
37642;DHT22;23486;51.956;5.888;2023-08-08T10:38:43;19.80;99.00
37642;DHT22;23486;51.956;5.888;2023-08-08T10:41:11;19.90;98.90
37642;DHT22;23486;51.956;5.888;2023-08-08T10:43:37;19.80;98.50
37642;DHT22;23486;51.956;5.888;2023-08-08T10:46:04;19.70;98.60
37642;DHT22;23486;51.956;5.888;2023-08-08T10:48:30;19.70;98.60
37642;DHT22;23486;51.956;5.888;2023-08-08T10:50:59;19.60;98.50
37642;DHT22;23486;51.956;5.888;2023-08-08T10:53:26;19.50;97.40
37642;DHT22;23486;51.956;5.888;2023-08-08T10:56:03;19.50;97.90
37642;DHT22;23486;51.956;5.888;2023-08-08T10:58:42;19.50;98.20
37642;DHT22;23486;51.956;5.888;2023-08-08T11:01:08;19.70;98.10
37642;DHT22;23486;51.956;5.888;2023-08-08T11:03:36;19.80;97.30
37642;DHT22;23486;51.956;5.888;2023-08-08T11:06:03;19.90;97.20
37642;DHT22;23486;51.956;5.888;2023-08-08T11:08:32;20.00;97.10
37642;DHT22;23486;51.956;5.888;2023-08-08T11:10:59;20.20;96.60
37642;DHT22;23486;51.956;5.888;2023-08-08T11:13:25;20.30;96.90
37642;DHT22;23486;51.956;5.888;2023-08-08T11:15:51;20.50;96.90
37642;DHT22;23486;51.956;5.888;2023-08-08T11:18:16;20.60;96.70
37642;DHT22;23486;51.956;5.888;2023-08-08T11:20:43;20.70;97.10
37642;DHT22;23486;51.956;5.888;2023-08-08T11:23:09;20.90;95.90
37642;DHT22;23486;51.956;5.888;2023-08-08T11:25:43;20.90;95.00
37642;DHT22;23486;51.956;5.888;2023-08-08T11:28:09;20.90;95.10
37642;DHT22;23486;51.956;5.888;2023-08-08T11:30:40;20.90;95.40
37642;DHT22;23486;51.956;5.888;2023-08-08T11:33:06;20.90;95.60
37642;DHT22;23486;51.956;5.888;2023-08-08T11:35:32;21.00;95.30
37642;DHT22;23486;51.956;5.888;2023-08-08T11:38:00;21.00;94.80
37642;DHT22;23486;51.956;5.888;2023-08-08T11:40:28;20.90;94.40
37642;DHT22;23486;51.956;5.888;2023-08-08T11:42:55;20.70;94.40
37642;DHT22;23486;51.956;5.888;2023-08-08T11:45:22;20.60;94.80
37642;DHT22;23486;51.956;5.888;2023-08-08T11:47:49;20.40;94.30
37642;DHT22;23486;51.956;5.888;2023-08-08T11:50:15;20.40;94.40
37642;DHT22;23486;51.956;5.888;2023-08-08T11:52:42;20.60;94.90
37642;DHT22;23486;51.956;5.888;2023-08-08T11:55:09;20.90;95.10
37642;DHT22;23486;51.956;5.888;2023-08-08T11:57:39;21.10;94.10
37642;DHT22;23486;51.956;5.888;2023-08-08T12:02:33;20.90;92.70
37642;DHT22;23486;51.956;5.888;2023-08-08T12:05:06;20.70;93.00
37642;DHT22;23486;51.956;5.888;2023-08-08T12:07:33;20.90;93.50
37642;DHT22;23486;51.956;5.888;2023-08-08T12:10:00;21.10;93.10
37642;DHT22;23486;51.956;5.888;2023-08-08T12:12:27;21.00;92.60
37642;DHT22;23486;51.956;5.888;2023-08-08T12:14:54;21.00;92.70
37642;DHT22;23486;51.956;5.888;2023-08-08T12:17:21;21.20;92.70
37642;DHT22;23486;51.956;5.888;2023-08-08T12:19:47;21.40;92.70
37642;DHT22;23486;51.956;5.888;2023-08-08T12:22:14;21.50;92.40
37642;DHT22;23486;51.956;5.888;2023-08-08T12:24:40;21.40;92.70
37642;DHT22;23486;51.956;5.888;2023-08-08T12:27:06;21.40;92.20
37642;DHT22;23486;51.956;5.888;2023-08-08T12:29:32;21.40;92.40
37642;DHT22;23486;51.956;5.888;2023-08-08T12:31:57;21.50;92.50
37642;DHT22;23486;51.956;5.888;2023-08-08T12:34:23;21.50;92.30
37642;DHT22;23486;51.956;5.888;2023-08-08T12:36:48;21.50;92.40
37642;DHT22;23486;51.956;5.888;2023-08-08T12:39:14;21.40;92.30
37642;DHT22;23486;51.956;5.888;2023-08-08T12:41:40;21.20;91.70
37642;DHT22;23486;51.956;5.888;2023-08-08T12:44:20;21.30;91.90
37642;DHT22;23486;51.956;5.888;2023-08-08T12:46:46;21.50;92.30
37642;DHT22;23486;51.956;5.888;2023-08-08T12:49:12;21.70;92.30
37642;DHT22;23486;51.956;5.888;2023-08-08T12:51:37;21.60;92.20
37642;DHT22;23486;51.956;5.888;2023-08-08T12:54:03;21.50;92.40
37642;DHT22;23486;51.956;5.888;2023-08-08T12:56:29;21.40;92.10
37642;DHT22;23486;51.956;5.888;2023-08-08T12:58:55;21.40;92.20
37642;DHT22;23486;51.956;5.888;2023-08-08T13:01:20;21.50;92.20
37642;DHT22;23486;51.956;5.888;2023-08-08T13:03:46;21.80;92.00
37642;DHT22;23486;51.956;5.888;2023-08-08T13:06:12;22.00;91.70
37642;DHT22;23486;51.956;5.888;2023-08-08T13:08:39;22.00;91.40
37642;DHT22;23486;51.956;5.888;2023-08-08T13:11:04;22.10;91.50
37642;DHT22;23486;51.956;5.888;2023-08-08T13:13:30;22.20;90.80
37642;DHT22;23486;51.956;5.888;2023-08-08T13:15:56;22.10;90.80
37642;DHT22;23486;51.956;5.888;2023-08-08T13:18:22;22.00;90.70
37642;DHT22;23486;51.956;5.888;2023-08-08T13:20:47;21.70;90.80
37642;DHT22;23486;51.956;5.888;2023-08-08T13:23:13;21.50;90.80
37642;DHT22;23486;51.956;5.888;2023-08-08T13:25:39;21.30;91.00
37642;DHT22;23486;51.956;5.888;2023-08-08T13:28:07;21.10;91.10
37642;DHT22;23486;51.956;5.888;2023-08-08T13:30:32;21.00;90.90
37642;DHT22;23486;51.956;5.888;2023-08-08T13:32:59;20.80;91.10
37642;DHT22;23486;51.956;5.888;2023-08-08T13:35:25;20.80;91.30
37642;DHT22;23486;51.956;5.888;2023-08-08T13:37:52;20.70;91.20
37642;DHT22;23486;51.956;5.888;2023-08-08T13:40:18;20.70;91.50
37642;DHT22;23486;51.956;5.888;2023-08-08T13:42:44;20.80;91.60
37642;DHT22;23486;51.956;5.888;2023-08-08T13:45:14;21.00;91.60
37642;DHT22;23486;51.956;5.888;2023-08-08T13:47:39;21.20;91.50
37642;DHT22;23486;51.956;5.888;2023-08-08T13:50:05;21.10;91.10
37642;DHT22;23486;51.956;5.888;2023-08-08T13:52:31;21.20;91.40
37642;DHT22;23486;51.956;5.888;2023-08-08T13:54:58;21.10;91.10
37642;DHT22;23486;51.956;5.888;2023-08-08T13:57:24;21.20;91.40
37642;DHT22;23486;51.956;5.888;2023-08-08T13:59:49;21.20;91.40
37642;DHT22;23486;51.956;5.888;2023-08-08T14:02:15;21.30;91.20
37642;DHT22;23486;51.956;5.888;2023-08-08T14:04:44;21.10;91.20
37642;DHT22;23486;51.956;5.888;2023-08-08T14:07:09;21.10;91.30
37642;DHT22;23486;51.956;5.888;2023-08-08T14:09:35;21.10;91.20
37642;DHT22;23486;51.956;5.888;2023-08-08T14:12:01;21.00;91.00
37642;DHT22;23486;51.956;5.888;2023-08-08T14:14:26;21.10;91.00
37642;DHT22;23486;51.956;5.888;2023-08-08T14:16:52;21.10;91.20
37642;DHT22;23486;51.956;5.888;2023-08-08T14:19:18;21.20;91.10
37642;DHT22;23486;51.956;5.888;2023-08-08T14:21:44;21.20;91.10
37642;DHT22;23486;51.956;5.888;2023-08-08T14:24:10;21.30;91.40
37642;DHT22;23486;51.956;5.888;2023-08-08T14:26:36;21.20;91.30
37642;DHT22;23486;51.956;5.888;2023-08-08T14:29:01;21.10;91.40
37642;DHT22;23486;51.956;5.888;2023-08-08T14:31:27;20.90;90.80
37642;DHT22;23486;51.956;5.888;2023-08-08T14:33:52;20.90;90.90
37642;DHT22;23486;51.956;5.888;2023-08-08T14:36:18;20.80;91.00
37642;DHT22;23486;51.956;5.888;2023-08-08T14:38:44;20.70;91.00
37642;DHT22;23486;51.956;5.888;2023-08-08T14:41:09;20.70;91.40
37642;DHT22;23486;51.956;5.888;2023-08-08T14:43:35;20.80;91.10
37642;DHT22;23486;51.956;5.888;2023-08-08T14:46:00;20.80;91.00
37642;DHT22;23486;51.956;5.888;2023-08-08T14:48:26;20.90;91.10
37642;DHT22;23486;51.956;5.888;2023-08-08T14:50:52;21.10;91.20
37642;DHT22;23486;51.956;5.888;2023-08-08T14:53:18;21.10;91.10
37642;DHT22;23486;51.956;5.888;2023-08-08T14:55:44;21.30;91.00
37642;DHT22;23486;51.956;5.888;2023-08-08T14:58:09;21.30;90.80
37642;DHT22;23486;51.956;5.888;2023-08-08T15:00:35;21.30;90.60
37642;DHT22;23486;51.956;5.888;2023-08-08T15:03:00;21.50;90.70
37642;DHT22;23486;51.956;5.888;2023-08-08T15:05:26;21.70;91.10
37642;DHT22;23486;51.956;5.888;2023-08-08T15:07:51;21.90;90.70
37642;DHT22;23486;51.956;5.888;2023-08-08T15:10:17;22.00;90.20
37642;DHT22;23486;51.956;5.888;2023-08-08T15:12:43;22.00;90.30
37642;DHT22;23486;51.956;5.888;2023-08-08T15:15:09;21.90;90.00
37642;DHT22;23486;51.956;5.888;2023-08-08T15:17:35;21.80;90.30
37642;DHT22;23486;51.956;5.888;2023-08-08T15:20:01;21.80;90.30
37642;DHT22;23486;51.956;5.888;2023-08-08T15:22:26;21.80;90.10
37642;DHT22;23486;51.956;5.888;2023-08-08T15:24:52;21.80;90.10
37642;DHT22;23486;51.956;5.888;2023-08-08T15:27:17;21.80;89.80